Time;durP1;ratioP1;P1;durP2;ratioP2;P2;SDS_P1;SDS_P2;PMS_P1;PMS_P2;Temp;Humidity;BMP_temperature;BMP_pressure;BME280_temperature;BME280_humidity;BME280_pressure;Samples;Min_cycle;Max_cycle;Signal;HPM_P1;HPM_P2
2022/08/07 00:01:04;;;;;;;;;;;13.50;99.90;;;;;;5113966;28;20286;-69
2022/08/07 00:03:30;;;;;;;;;;;13.50;99.90;;;;;;5113872;28;19924;-69
2022/08/07 00:05:55;;;;;;;;;;;14.60;99.90;;;;;;5113813;28;19931;-70
2022/08/07 00:08:24;;;;;;;;;;;13.50;99.90;;;;;;5095607;28;19923;-70
2022/08/07 00:10:49;;;;;;;;;;;13.50;99.90;;;;;;5099318;28;19923;-69
2022/08/07 00:13:16;;;;;;;;;;;13.50;99.90;;;;;;5117822;28;19924;-70
2022/08/07 00:15:41;;;;;;;;;;;13.50;99.90;;;;;;5117891;28;20336;-70
2022/08/07 00:18:08;;;;;;;;;;;13.50;99.90;;;;;;5117740;28;19928;-69
2022/08/07 00:20:34;;;;;;;;;;;13.50;99.90;;;;;;5117730;28;20367;-70
2022/08/07 00:23:00;;;;;;;;;;;13.40;99.90;;;;;;5117629;28;19923;-69
2022/08/07 00:25:26;;;;;;;;;;;13.40;99.90;;;;;;5117837;28;20259;-70
2022/08/07 00:27:51;;;;;;;;;;;13.40;99.90;;;;;;5117713;28;19924;-69
2022/08/07 00:30:17;;;;;;;;;;;13.30;99.90;;;;;;5117664;28;19993;-70
2022/08/07 00:32:46;;;;;;;;;;;13.30;99.90;;;;;;5124923;27;19988;-69
2022/08/07 00:35:11;;;;;;;;;;;13.30;99.90;;;;;;5138089;27;20412;-69
2022/08/07 00:37:37;;;;;;;;;;;13.30;99.90;;;;;;5119776;27;19971;-69
2022/08/07 00:40:03;;;;;;;;;;;13.30;99.90;;;;;;5138158;27;20438;-69
2022/08/07 00:42:28;;;;;;;;;;;13.30;99.90;;;;;;5138006;27;20010;-70
2022/08/07 00:44:54;;;;;;;;;;;13.30;99.90;;;;;;5137903;27;20028;-69
2022/08/07 00:47:19;;;;;;;;;;;13.30;99.90;;;;;;5137916;27;20377;-70
2022/08/07 00:49:45;;;;;;;;;;;13.20;99.90;;;;;;5137782;27;20417;-70
2022/08/07 00:52:10;;;;;;;;;;;13.10;99.90;;;;;;5119673;27;20279;-69
2022/08/07 00:54:36;;;;;;;;;;;13.10;99.90;;;;;;5137638;27;20271;-70
2022/08/07 00:57:01;;;;;;;;;;;13.10;99.90;;;;;;5119782;27;19923;-69
2022/08/07 00:59:27;;;;;;;;;;;13.00;99.90;;;;;;5119185;27;19928;-68
2022/08/07 01:01:52;;;;;;;;;;;12.90;99.90;;;;;;5137646;27;19923;-69
2022/08/07 01:04:19;;;;;;;;;;;12.70;99.90;;;;;;5137566;27;20300;-69
2022/08/07 01:06:44;;;;;;;;;;;12.60;99.90;;;;;;5137530;27;20282;-69
2022/08/07 01:09:10;;;;;;;;;;;12.40;99.90;;;;;;5137339;27;19923;-69
2022/08/07 01:11:36;;;;;;;;;;;12.60;99.90;;;;;;5137523;27;19976;-70
2022/08/07 01:14:01;;;;;;;;;;;12.30;99.90;;;;;;5137467;27;19923;-69
2022/08/07 01:16:27;;;;;;;;;;;12.50;99.90;;;;;;5119139;27;19927;-69
2022/08/07 01:18:53;;;;;;;;;;;12.40;99.90;;;;;;5137169;27;19976;-70
2022/08/07 01:21:20;;;;;;;;;;;12.50;99.90;;;;;;5136341;27;20284;-69
2022/08/07 01:23:46;;;;;;;;;;;12.50;99.90;;;;;;5137070;27;20430;-69
2022/08/07 01:26:13;;;;;;;;;;;12.50;99.90;;;;;;5136995;27;19923;-69
2022/08/07 01:28:40;;;;;;;;;;;12.50;99.90;;;;;;5119048;27;19923;-69
2022/08/07 01:31:06;;;;;;;;;;;12.80;99.90;;;;;;5137148;27;19930;-69
2022/08/07 01:33:32;;;;;;;;;;;12.60;99.90;;;;;;5136923;27;19923;-70
2022/08/07 01:35:59;;;;;;;;;;;12.50;99.90;;;;;;5118806;27;19928;-69
2022/08/07 01:38:24;;;;;;;;;;;12.30;99.90;;;;;;5136700;27;19923;-68
2022/08/07 01:40:51;;;;;;;;;;;12.30;99.90;;;;;;5118216;27;19930;-70
2022/08/07 01:43:17;;;;;;;;;;;12.20;99.90;;;;;;5136836;27;20285;-70
2022/08/07 01:45:42;;;;;;;;;;;12.10;99.90;;;;;;5136863;27;19930;-69
2022/08/07 01:48:08;;;;;;;;;;;12.00;99.90;;;;;;5118670;27;19923;-70
2022/08/07 01:50:35;;;;;;;;;;;12.10;99.90;;;;;;5136654;27;19930;-68
2022/08/07 01:53:02;;;;;;;;;;;11.80;99.90;;;;;;5136651;27;19967;-68
2022/08/07 01:55:28;;;;;;;;;;;11.80;99.90;;;;;;5136396;27;19934;-70
2022/08/07 01:57:56;;;;;;;;;;;12.30;99.90;;;;;;5136495;27;19923;-68
2022/08/07 02:00:24;;;;;;;;;;;11.60;99.90;;;;;;5136466;27;20385;-69
2022/08/07 02:02:52;;;;;;;;;;;11.70;99.90;;;;;;5118427;27;19968;-69
2022/08/07 02:05:35;;;;;;;;;;;11.60;99.90;;;;;;5136389;27;20343;-69
2022/08/07 02:08:02;;;;;;;;;;;11.60;99.90;;;;;;5118088;27;19924;-69
2022/08/07 02:10:28;;;;;;;;;;;11.70;99.90;;;;;;5136434;27;20393;-70
2022/08/07 02:12:55;;;;;;;;;;;11.60;99.90;;;;;;5118094;27;19924;-69
2022/08/07 02:15:22;;;;;;;;;;;11.60;99.90;;;;;;5136088;27;19924;-69
2022/08/07 02:17:48;;;;;;;;;;;11.70;99.90;;;;;;5117820;27;19927;-69
2022/08/07 02:20:14;;;;;;;;;;;11.70;99.90;;;;;;5136025;27;19934;-70
2022/08/07 02:22:41;;;;;;;;;;;11.60;99.90;;;;;;5135869;27;19930;-69
2022/08/07 02:25:07;;;;;;;;;;;11.60;99.90;;;;;;5135987;27;19971;-69
2022/08/07 02:27:33;;;;;;;;;;;11.60;99.90;;;;;;5136037;27;19923;-69
2022/08/07 02:29:59;;;;;;;;;;;11.70;99.90;;;;;;5152254;27;19931;-68
2022/08/07 02:32:25;;;;;;;;;;;12.00;99.90;;;;;;5135650;27;20019;-70
2022/08/07 02:34:52;;;;;;;;;;;11.60;99.90;;;;;;5117592;27;19923;-69
2022/08/07 02:37:17;;;;;;;;;;;12.40;99.90;;;;;;5135605;27;19932;-69
2022/08/07 02:39:44;;;;;;;;;;;11.80;99.90;;;;;;5117131;27;20392;-68
2022/08/07 02:42:10;;;;;;;;;;;12.10;99.90;;;;;;5117639;27;19924;-69
2022/08/07 02:44:38;;;;;;;;;;;11.90;99.90;;;;;;5117562;27;19991;-69
2022/08/07 02:47:04;;;;;;;;;;;11.90;99.90;;;;;;5135652;27;19923;-70
2022/08/07 02:49:30;;;;;;;;;;;11.90;99.90;;;;;;5135504;27;19976;-69
2022/08/07 02:51:57;;;;;;;;;;;12.00;99.90;;;;;;5135325;27;19923;-69
2022/08/07 02:54:26;;;;;;;;;;;12.40;99.90;;;;;;5135543;27;20006;-69
2022/08/07 02:56:53;;;;;;;;;;;12.00;99.90;;;;;;5135487;27;19931;-69
2022/08/07 02:59:20;;;;;;;;;;;12.00;99.90;;;;;;5117063;27;19992;-70
2022/08/07 03:01:46;;;;;;;;;;;12.20;99.90;;;;;;5135389;27;19968;-70
2022/08/07 03:04:13;;;;;;;;;;;12.00;99.90;;;;;;5116917;27;19965;-70
2022/08/07 03:06:40;;;;;;;;;;;12.10;99.90;;;;;;5135674;27;19963;-70
2022/08/07 03:09:07;;;;;;;;;;;12.00;99.90;;;;;;5135083;27;19924;-69
2022/08/07 03:11:34;;;;;;;;;;;12.00;99.90;;;;;;5135192;27;20399;-69
2022/08/07 03:14:01;;;;;;;;;;;12.00;99.90;;;;;;5135066;27;20430;-68
2022/08/07 03:16:26;;;;;;;;;;;12.00;99.90;;;;;;5135105;27;19923;-70
2022/08/07 03:18:52;;;;;;;;;;;12.10;99.90;;;;;;5134875;27;20323;-70
2022/08/07 03:21:18;;;;;;;;;;;12.00;99.90;;;;;;5151061;27;19927;-70
2022/08/07 03:23:44;;;;;;;;;;;11.90;99.90;;;;;;5134869;27;19927;-69
2022/08/07 03:26:11;;;;;;;;;;;11.90;99.90;;;;;;5135018;27;19923;-70
2022/08/07 03:28:37;;;;;;;;;;;11.90;99.90;;;;;;5134913;27;19923;-70
2022/08/07 03:31:37;;;;;;;;;;;11.90;99.90;;;;;;5116830;28;20365;-69
2022/08/07 03:33:57;;;;;;;;;;;11.90;99.90;;;;;;5132793;27;20405;-68
2022/08/07 03:36:24;;;;;;;;;;;11.80;99.90;;;;;;5134923;27;19929;-68
2022/08/07 03:38:51;;;;;;;;;;;11.80;99.90;;;;;;5134736;27;19923;-69
2022/08/07 03:41:17;;;;;;;;;;;12.40;99.90;;;;;;5134787;28;19924;-69
2022/08/07 03:43:43;;;;;;;;;;;11.90;99.90;;;;;;5117009;27;19924;-70
2022/08/07 03:46:09;;;;;;;;;;;11.80;99.90;;;;;;5141328;27;19923;-69
2022/08/07 03:48:35;;;;;;;;;;;11.80;99.90;;;;;;5141441;27;19931;-69
2022/08/07 03:51:01;;;;;;;;;;;11.80;99.90;;;;;;5141643;27;19927;-69
2022/08/07 03:53:27;;;;;;;;;;;12.30;99.90;;;;;;5141715;27;19933;-70
2022/08/07 03:55:54;;;;;;;;;;;11.70;99.90;;;;;;5141561;27;20014;-69
2022/08/07 03:58:20;;;;;;;;;;;11.70;99.90;;;;;;5141196;27;20391;-70
2022/08/07 04:00:47;;;;;;;;;;;11.70;99.90;;;;;;5123312;27;19924;-70
2022/08/07 04:03:13;;;;;;;;;;;11.90;99.90;;;;;;5141368;27;19924;-68
2022/08/07 04:05:38;;;;;;;;;;;11.70;99.90;;;;;;5141248;27;19930;-69
2022/08/07 04:08:04;;;;;;;;;;;11.70;99.90;;;;;;5123442;27;19923;-69
2022/08/07 04:10:30;;;;;;;;;;;11.60;99.90;;;;;;5156740;27;19923;-68
2022/08/07 04:12:56;;;;;;;;;;;11.70;99.90;;;;;;5141291;27;20325;-70
2022/08/07 04:15:21;;;;;;;;;;;11.70;99.90;;;;;;5141222;27;20018;-70
2022/08/07 04:17:47;;;;;;;;;;;12.10;99.90;;;;;;5141235;27;19927;-69
2022/08/07 04:20:13;;;;;;;;;;;11.70;99.90;;;;;;5141103;27;19923;-69
2022/08/07 04:22:39;;;;;;;;;;;11.70;99.90;;;;;;5141396;27;20334;-70
2022/08/07 04:25:05;;;;;;;;;;;11.60;99.90;;;;;;5123174;27;19923;-70
2022/08/07 04:27:31;;;;;;;;;;;11.60;99.90;;;;;;5141106;27;20377;-70
2022/08/07 04:29:57;;;;;;;;;;;11.60;99.90;;;;;;5123079;27;19923;-68
2022/08/07 04:32:22;;;;;;;;;;;11.60;99.90;;;;;;5140891;27;19923;-69
2022/08/07 04:34:49;;;;;;;;;;;11.60;99.90;;;;;;5141053;27;19991;-70
2022/08/07 04:37:15;;;;;;;;;;;11.70;99.90;;;;;;5157609;27;20285;-69
2022/08/07 04:39:41;;;;;;;;;;;11.60;99.90;;;;;;5141117;27;19994;-70
2022/08/07 04:42:08;;;;;;;;;;;11.60;99.90;;;;;;5140212;27;20209;-69
2022/08/07 04:44:34;;;;;;;;;;;11.60;99.90;;;;;;5141048;27;19968;-69
2022/08/07 04:47:15;;;;;;;;;;;11.50;99.90;;;;;;5140974;27;19981;-69
2022/08/07 04:49:41;;;;;;;;;;;11.50;99.90;;;;;;5140813;27;19924;-68
2022/08/07 04:52:06;;;;;;;;;;;11.60;99.90;;;;;;5141079;27;19930;-69
2022/08/07 04:54:38;;;;;;;;;;;11.60;99.90;;;;;;5140741;27;19930;-67
2022/08/07 04:57:17;;;;;;;;;;;11.60;99.90;;;;;;5118867;27;19930;-69
2022/08/07 04:59:47;;;;;;;;;;;11.70;99.90;;;;;;5119115;27;20313;-69
2022/08/07 05:02:16;;;;;;;;;;;11.70;99.90;;;;;;5119232;27;19923;-68
2022/08/07 05:04:49;;;;;;;;;;;11.70;99.90;;;;;;5119402;27;19923;-68
2022/08/07 05:07:22;;;;;;;;;;;11.80;99.90;;;;;;5137432;27;20293;-70
2022/08/07 05:09:53;;;;;;;;;;;11.70;99.90;;;;;;5137459;27;20301;-68
2022/08/07 05:12:22;;;;;;;;;;;11.80;99.90;;;;;;5137356;27;19923;-69
2022/08/07 05:14:50;;;;;;;;;;;11.80;99.90;;;;;;5137217;27;19934;-70
2022/08/07 05:17:17;;;;;;;;;;;11.90;99.90;;;;;;5119436;27;19923;-68
2022/08/07 05:19:45;;;;;;;;;;;11.90;99.90;;;;;;5137429;27;19924;-70
2022/08/07 05:22:12;;;;;;;;;;;12.00;99.90;;;;;;5137234;27;20006;-69
2022/08/07 05:24:38;;;;;;;;;;;12.00;99.90;;;;;;5137208;27;19931;-69
2022/08/07 05:27:04;;;;;;;;;;;12.40;99.90;;;;;;5137070;27;19924;-69
2022/08/07 05:29:30;;;;;;;;;;;12.20;99.90;;;;;;5136925;27;19976;-69
2022/08/07 05:31:56;;;;;;;;;;;12.20;99.90;;;;;;5118932;27;19930;-69
2022/08/07 05:34:22;;;;;;;;;;;12.20;99.90;;;;;;5119053;27;19923;-70
2022/08/07 05:36:49;;;;;;;;;;;12.20;99.90;;;;;;5136956;27;20042;-70
2022/08/07 05:39:16;;;;;;;;;;;12.30;99.90;;;;;;5136827;27;19924;-70
2022/08/07 05:41:42;;;;;;;;;;;12.40;99.90;;;;;;5136816;27;19923;-69
2022/08/07 05:44:08;;;;;;;;;;;12.60;99.90;;;;;;5136566;27;19934;-69
2022/08/07 05:46:35;;;;;;;;;;;12.50;99.90;;;;;;5136905;27;19924;-70
2022/08/07 05:49:03;;;;;;;;;;;12.60;99.90;;;;;;5118451;27;19924;-70
2022/08/07 05:51:29;;;;;;;;;;;12.60;99.90;;;;;;5136721;27;19992;-69
2022/08/07 05:53:54;;;;;;;;;;;12.70;99.90;;;;;;5136635;27;20315;-69
2022/08/07 05:56:20;;;;;;;;;;;12.70;99.90;;;;;;5136531;27;19924;-71
2022/08/07 05:58:47;;;;;;;;;;;12.80;99.90;;;;;;5135244;27;19932;-70
2022/08/07 06:01:14;;;;;;;;;;;12.90;99.90;;;;;;5136441;27;19923;-70
2022/08/07 06:03:42;;;;;;;;;;;12.90;99.90;;;;;;5136193;27;20343;-71
2022/08/07 06:06:10;;;;;;;;;;;13.00;99.90;;;;;;5136323;27;19988;-70
2022/08/07 06:08:36;;;;;;;;;;;13.10;99.90;;;;;;5130175;27;19976;-69
2022/08/07 06:11:01;;;;;;;;;;;13.20;99.90;;;;;;5169846;27;19922;-70
2022/08/07 06:13:27;;;;;;;;;;;13.30;99.90;;;;;;5177748;27;20029;-68
2022/08/07 06:15:53;;;;;;;;;;;13.30;99.90;;;;;;5177535;27;20385;-69
2022/08/07 06:18:20;;;;;;;;;;;13.50;99.90;;;;;;5158655;27;20380;-69
2022/08/07 06:20:45;;;;;;;;;;;13.60;99.90;;;;;;5159371;27;19923;-70
2022/08/07 06:23:11;;;;;;;;;;;13.90;99.90;;;;;;5159269;27;20335;-68
2022/08/07 06:25:39;;;;;;;;;;;13.60;99.90;;;;;;5177623;27;20337;-69
2022/08/07 06:28:09;;;;;;;;;;;13.80;99.90;;;;;;5158700;27;20412;-70
2022/08/07 06:30:35;;;;;;;;;;;13.90;99.90;;;;;;5177075;27;19923;-69
2022/08/07 06:33:01;;;;;;;;;;;14.00;99.90;;;;;;5158715;27;19923;-70
2022/08/07 06:35:27;;;;;;;;;;;14.00;99.90;;;;;;5158995;27;19922;-70
2022/08/07 06:37:52;;;;;;;;;;;14.10;99.90;;;;;;5158165;27;20293;-69
2022/08/07 06:40:18;;;;;;;;;;;14.20;99.90;;;;;;5177161;27;19972;-70
2022/08/07 06:42:45;;;;;;;;;;;14.30;99.90;;;;;;5177196;27;20037;-71
2022/08/07 06:45:12;;;;;;;;;;;14.30;99.90;;;;;;5158550;27;19961;-70
2022/08/07 06:47:38;;;;;;;;;;;14.40;99.90;;;;;;5177297;27;20464;-70
2022/08/07 06:50:04;;;;;;;;;;;14.40;99.90;;;;;;5193341;27;19977;-68
2022/08/07 06:52:36;;;;;;;;;;;14.50;99.90;;;;;;5177318;27;19962;-70
2022/08/07 06:55:07;;;;;;;;;;;14.60;99.90;;;;;;5176908;27;20467;-69
2022/08/07 06:57:33;;;;;;;;;;;14.70;99.90;;;;;;5176737;27;19923;-70
2022/08/07 06:59:59;;;;;;;;;;;14.90;99.90;;;;;;5176458;27;19934;-70
2022/08/07 07:02:25;;;;;;;;;;;14.90;99.90;;;;;;5193348;27;20297;-70
2022/08/07 07:04:51;;;;;;;;;;;15.00;99.90;;;;;;5176892;27;19923;-70
2022/08/07 07:07:16;;;;;;;;;;;15.50;99.90;;;;;;5158355;27;20273;-69
2022/08/07 07:09:46;;;;;;;;;;;15.10;99.90;;;;;;5158345;27;20027;-70
2022/08/07 07:12:17;;;;;;;;;;;15.20;99.90;;;;;;5176552;27;19983;-70
2022/08/07 07:14:43;;;;;;;;;;;15.30;99.90;;;;;;5176384;27;19978;-70
2022/08/07 07:17:12;;;;;;;;;;;15.40;99.90;;;;;;5176708;27;19926;-70
2022/08/07 07:19:41;;;;;;;;;;;15.50;99.90;;;;;;5175849;27;19934;-70
2022/08/07 07:22:07;;;;;;;;;;;15.50;99.90;;;;;;5176483;27;19950;-69
2022/08/07 07:24:33;;;;;;;;;;;15.60;99.90;;;;;;5176450;27;19929;-70
2022/08/07 07:27:00;;;;;;;;;;;15.70;99.90;;;;;;5176406;27;20010;-70
2022/08/07 07:29:29;;;;;;;;;;;15.70;99.90;;;;;;5176212;27;19968;-70
2022/08/07 07:31:55;;;;;;;;;;;15.80;99.90;;;;;;5157297;27;20006;-70
2022/08/07 07:34:22;;;;;;;;;;;15.80;99.90;;;;;;5155578;27;19923;-70
2022/08/07 07:36:49;;;;;;;;;;;16.00;99.90;;;;;;5155458;27;19927;-70
2022/08/07 07:39:16;;;;;;;;;;;16.00;99.90;;;;;;5155300;27;19927;-69
2022/08/07 07:41:43;;;;;;;;;;;16.10;99.90;;;;;;5155249;27;20009;-69
2022/08/07 07:44:10;;;;;;;;;;;16.10;99.90;;;;;;5155577;27;19923;-69
2022/08/07 07:46:36;;;;;;;;;;;16.20;99.90;;;;;;5136873;27;20330;-70
2022/08/07 07:49:03;;;;;;;;;;;16.30;99.90;;;;;;5155421;27;19923;-69
2022/08/07 07:51:30;;;;;;;;;;;16.40;99.90;;;;;;5155393;27;19923;-68
2022/08/07 07:53:56;;;;;;;;;;;16.40;99.90;;;;;;5155299;27;19923;-70
2022/08/07 07:56:23;;;;;;;;;;;16.50;99.90;;;;;;5155144;27;19923;-69
2022/08/07 07:58:49;;;;;;;;;;;16.50;99.90;;;;;;5154821;27;19927;-70
2022/08/07 08:01:15;;;;;;;;;;;16.60;99.90;;;;;;5155372;27;19930;-70
2022/08/07 08:03:42;;;;;;;;;;;16.70;99.90;;;;;;5155289;27;20452;-69
2022/08/07 08:06:08;;;;;;;;;;;16.70;99.90;;;;;;5155273;27;19927;-70
2022/08/07 08:08:34;;;;;;;;;;;16.80;99.90;;;;;;5137049;27;19923;-70
2022/08/07 08:11:00;;;;;;;;;;;16.90;99.90;;;;;;5136714;27;20442;-70
2022/08/07 08:13:27;;;;;;;;;;;16.90;99.90;;;;;;5155066;27;19924;-70
2022/08/07 08:15:53;;;;;;;;;;;17.00;99.90;;;;;;5155268;27;19923;-71
2022/08/07 08:18:21;;;;;;;;;;;17.10;99.90;;;;;;5154851;27;20430;-70
2022/08/07 08:20:47;;;;;;;;;;;17.10;99.90;;;;;;5155143;27;20369;-70
2022/08/07 08:28:44;;;;;;;;;;;17.30;99.90;;;;;;5136629;27;20000;-69
2022/08/07 08:31:11;;;;;;;;;;;17.40;99.90;;;;;;5157125;27;19923;-69
2022/08/07 08:33:38;;;;;;;;;;;17.40;99.90;;;;;;5158744;27;20370;-70
2022/08/07 08:36:04;;;;;;;;;;;17.50;99.90;;;;;;5158654;27;19923;-70
2022/08/07 08:38:35;;;;;;;;;;;17.50;99.90;;;;;;5140091;27;19937;-70
2022/08/07 08:41:00;;;;;;;;;;;17.60;99.90;;;;;;5158777;27;20271;-70
2022/08/07 08:43:29;;;;;;;;;;;17.60;99.90;;;;;;5158745;27;19955;-70
2022/08/07 08:46:00;;;;;;;;;;;17.60;99.90;;;;;;5158651;27;19923;-70
2022/08/07 08:48:26;;;;;;;;;;;17.70;99.90;;;;;;5158510;27;19976;-70
2022/08/07 08:51:12;;;;;;;;;;;17.70;99.90;;;;;;5140343;27;19923;-73
2022/08/07 08:53:47;;;;;;;;;;;17.80;99.90;;;;;;5158542;27;19923;-69
2022/08/07 08:56:27;;;;;;;;;;;17.90;99.90;;;;;;5158494;27;19923;-71
2022/08/07 08:59:22;;;;;;;;;;;17.90;99.90;;;;;;5139810;27;19923;-69
2022/08/07 09:01:51;;;;;;;;;;;18.00;99.90;;;;;;5152330;27;19923;-70
2022/08/07 09:04:32;;;;;;;;;;;18.10;99.90;;;;;;5158420;27;20070;-70
2022/08/07 09:06:57;;;;;;;;;;;18.20;99.90;;;;;;5158315;27;19927;-70
2022/08/07 09:09:26;;;;;;;;;;;18.20;99.90;;;;;;5158260;27;19930;-71
2022/08/07 09:12:11;;;;;;;;;;;18.30;99.90;;;;;;5139825;27;20001;-70
2022/08/07 09:14:43;;;;;;;;;;;18.30;99.90;;;;;;5139835;27;19927;-71
2022/08/07 09:17:11;;;;;;;;;;;18.40;99.90;;;;;;5158016;27;20373;-70
2022/08/07 09:19:56;;;;;;;;;;;18.40;99.90;;;;;;5157810;27;20385;-70
2022/08/07 09:22:27;;;;;;;;;;;18.50;99.90;;;;;;5157899;27;20005;-70
2022/08/07 09:25:02;;;;;;;;;;;18.50;99.90;;;;;;5158080;27;19927;-71
2022/08/07 09:27:41;;;;;;;;;;;18.50;99.90;;;;;;5157913;27;19957;-71
2022/08/07 09:30:08;;;;;;;;;;;18.60;99.90;;;;;;5139457;27;19923;-70
2022/08/07 09:32:55;;;;;;;;;;;18.60;99.90;;;;;;5157467;27;20277;-70
2022/08/07 09:35:35;;;;;;;;;;;18.70;99.90;;;;;;5157548;27;19923;-69
2022/08/07 09:38:06;;;;;;;;;;;18.80;99.90;;;;;;5157613;27;19931;-71
2022/08/07 09:40:52;;;;;;;;;;;18.80;99.90;;;;;;5132401;27;20340;-71
2022/08/07 09:43:17;;;;;;;;;;;18.90;99.90;;;;;;5123240;27;19927;-70
2022/08/07 09:45:50;;;;;;;;;;;19.00;99.90;;;;;;5115993;28;20294;-70
2022/08/07 09:48:16;;;;;;;;;;;19.10;99.90;;;;;;5097787;28;19993;-69
2022/08/07 09:51:08;;;;;;;;;;;19.10;99.90;;;;;;5117772;27;20389;-71
2022/08/07 09:53:39;;;;;;;;;;;19.20;99.90;;;;;;5102620;27;19923;-71
2022/08/07 09:56:08;;;;;;;;;;;19.40;99.90;;;;;;5157001;27;19923;-71
2022/08/07 09:58:58;;;;;;;;;;;19.40;99.90;;;;;;5157100;27;19923;-70
2022/08/07 10:01:42;;;;;;;;;;;19.50;99.90;;;;;;5157140;27;20373;-70
2022/08/07 10:04:27;;;;;;;;;;;19.60;99.90;;;;;;5138334;27;19927;-71
2022/08/07 10:07:11;;;;;;;;;;;19.60;99.90;;;;;;5138905;27;19923;-69
2022/08/07 10:09:53;;;;;;;;;;;19.70;99.90;;;;;;5157099;27;19929;-69
2022/08/07 10:12:20;;;;;;;;;;;19.80;99.90;;;;;;5156827;27;20430;-69
2022/08/07 10:14:52;;;;;;;;;;;19.90;99.90;;;;;;5138300;27;19930;-71
2022/08/07 10:17:23;;;;;;;;;;;19.90;99.90;;;;;;5138044;27;19930;-69
2022/08/07 10:20:01;;;;;;;;;;;19.90;99.90;;;;;;5156847;27;20027;-71
2022/08/07 10:22:35;;;;;;;;;;;20.00;99.90;;;;;;5156844;27;20420;-69
2022/08/07 10:25:05;;;;;;;;;;;19.90;99.90;;;;;;5156605;27;20381;-70
2022/08/07 10:27:40;;;;;;;;;;;20.00;99.90;;;;;;5138453;27;19927;-70
2022/08/07 10:30:11;;;;;;;;;;;20.00;99.90;;;;;;5156384;27;19923;-71
2022/08/07 10:32:37;;;;;;;;;;;20.00;99.90;;;;;;5138247;27;19923;-69
2022/08/07 10:35:20;;;;;;;;;;;20.00;99.90;;;;;;5156499;27;20448;-71
2022/08/07 10:37:49;;;;;;;;;;;20.00;99.90;;;;;;5156329;27;19973;-69
2022/08/07 10:40:37;;;;;;;;;;;19.90;99.90;;;;;;5156291;27;19930;-70
2022/08/07 10:43:11;;;;;;;;;;;19.90;99.90;;;;;;5156220;27;19975;-70
2022/08/07 10:45:54;;;;;;;;;;;19.90;99.90;;;;;;5156352;27;19924;-70
2022/08/07 10:48:29;;;;;;;;;;;19.90;99.90;;;;;;5156145;27;20048;-69
2022/08/07 10:51:01;;;;;;;;;;;19.90;99.90;;;;;;5156140;27;19930;-71
2022/08/07 10:53:35;;;;;;;;;;;19.90;99.90;;;;;;5155718;27;19982;-70
2022/08/07 10:56:09;;;;;;;;;;;20.00;99.90;;;;;;5137434;27;19931;-71
2022/08/07 10:58:46;;;;;;;;;;;19.70;99.90;;;;;;5155799;27;19923;-70
2022/08/07 11:01:18;;;;;;;;;;;20.00;99.90;;;;;;5155698;27;19985;-71
2022/08/07 11:03:53;;;;;;;;;;;20.00;99.90;;;;;;5156045;27;19923;-70
2022/08/07 11:06:20;;;;;;;;;;;20.00;99.90;;;;;;5155955;27;19927;-70
2022/08/07 11:08:57;;;;;;;;;;;20.00;99.90;;;;;;5156029;27;19930;-71
2022/08/07 11:11:26;;;;;;;;;;;20.00;99.90;;;;;;5155853;27;19974;-72
2022/08/07 11:13:54;;;;;;;;;;;20.10;99.90;;;;;;5155911;27;19930;-74
2022/08/07 11:16:40;;;;;;;;;;;20.10;99.90;;;;;;5155782;27;19926;-71
2022/08/07 11:19:10;;;;;;;;;;;20.10;99.90;;;;;;5119344;27;20371;-73
2022/08/07 11:21:35;;;;;;;;;;;20.10;99.90;;;;;;5137453;27;20294;-72
2022/08/07 11:24:14;;;;;;;;;;;20.10;99.90;;;;;;5137305;27;19930;-74
2022/08/07 11:26:52;;;;;;;;;;;20.10;99.90;;;;;;5155464;27;19929;-73
2022/08/07 11:29:23;;;;;;;;;;;20.10;99.90;;;;;;5155457;27;19979;-72
2022/08/07 11:31:48;;;;;;;;;;;20.20;99.90;;;;;;5137367;27;19927;-71
2022/08/07 11:34:19;;;;;;;;;;;20.20;99.90;;;;;;5155396;27;19934;-70
2022/08/07 11:36:51;;;;;;;;;;;20.20;99.90;;;;;;5155338;27;20018;-71
2022/08/07 11:39:36;;;;;;;;;;;20.20;99.90;;;;;;5136545;27;19929;-71
2022/08/07 11:42:11;;;;;;;;;;;20.30;99.90;;;;;;5051070;28;19935;-72
2022/08/07 11:44:55;;;;;;;;;;;20.30;99.90;;;;;;5051107;28;20489;-71
2022/08/07 11:47:56;;;;;;;;;;;20.40;99.90;;;;;;5068009;28;19925;-70
2022/08/07 11:50:25;;;;;;;;;;;20.40;99.90;;;;;;4992074;28;19926;-71
2022/08/07 11:53:00;;;;;;;;;;;20.40;99.90;;;;;;4991928;28;19999;-72
2022/08/07 11:55:28;;;;;;;;;;;20.40;99.90;;;;;;4991937;28;19925;-71
2022/08/07 11:57:59;;;;;;;;;;;20.50;99.90;;;;;;4975549;28;19926;-72
2022/08/07 12:00:30;;;;;;;;;;;20.50;99.90;;;;;;4991725;28;19926;-70
2022/08/07 12:02:55;;;;;;;;;;;20.50;99.90;;;;;;4991939;28;19930;-71
2022/08/07 12:05:24;;;;;;;;;;;20.50;99.90;;;;;;4992556;28;19930;-70
2022/08/07 12:07:56;;;;;;;;;;;20.50;99.90;;;;;;4995910;28;19926;-71
2022/08/07 12:10:34;;;;;;;;;;;20.60;99.90;;;;;;4995725;28;19926;-70
2022/08/07 12:13:07;;;;;;;;;;;20.60;99.90;;;;;;4995404;28;19926;-72
2022/08/07 12:15:38;;;;;;;;;;;20.60;99.90;;;;;;4995576;28;20029;-70
2022/08/07 12:18:12;;;;;;;;;;;20.60;99.90;;;;;;5001566;28;19932;-70
2022/08/07 12:20:46;;;;;;;;;;;20.60;99.90;;;;;;5078055;28;20387;-72
2022/08/07 12:23:22;;;;;;;;;;;20.60;99.90;;;;;;5097197;27;19986;-72
2022/08/07 12:25:59;;;;;;;;;;;20.70;99.90;;;;;;5140375;27;19927;-71
2022/08/07 12:28:46;;;;;;;;;;;20.80;99.90;;;;;;5141319;27;19929;-70
2022/08/07 12:31:18;;;;;;;;;;;20.80;98.90;;;;;;5123021;27;20043;-72
2022/08/07 12:33:45;;;;;;;;;;;20.80;92.90;;;;;;5139847;27;20009;-71
2022/08/07 12:36:16;;;;;;;;;;;20.80;96.40;;;;;;5158850;27;20025;-73
2022/08/07 12:38:44;;;;;;;;;;;20.90;99.90;;;;;;5140289;27;19931;-71
2022/08/07 12:41:11;;;;;;;;;;;20.90;99.90;;;;;;5140125;27;20056;-71
2022/08/07 12:43:39;;;;;;;;;;;20.90;97.20;;;;;;5139953;27;20403;-71
2022/08/07 12:46:16;;;;;;;;;;;20.90;99.90;;;;;;5158303;27;19923;-71
2022/08/07 12:49:03;;;;;;;;;;;21.00;99.90;;;;;;5139785;27;20370;-71
2022/08/07 12:51:37;;;;;;;;;;;21.00;95.20;;;;;;5158289;27;19927;-71
2022/08/07 12:54:14;;;;;;;;;;;21.10;95.40;;;;;;5153572;27;20308;-71
2022/08/07 12:56:44;;;;;;;;;;;21.10;94.30;;;;;;5141195;27;20026;-71
2022/08/07 12:59:11;;;;;;;;;;;21.20;87.00;;;;;;5128136;27;20300;-71
2022/08/07 13:01:54;;;;;;;;;;;21.30;84.20;;;;;;5140030;27;19923;-70
2022/08/07 13:04:20;;;;;;;;;;;21.10;88.70;;;;;;5158262;27;20342;-71
2022/08/07 13:06:56;;;;;;;;;;;21.20;90.00;;;;;;5157919;27;19934;-72
2022/08/07 13:09:40;;;;;;;;;;;21.20;97.10;;;;;;5158092;27;19927;-70
2022/08/07 13:12:09;;;;;;;;;;;21.20;89.90;;;;;;5139563;27;20277;-70
2022/08/07 13:14:58;;;;;;;;;;;21.20;92.80;;;;;;5139567;27;20351;-72
2022/08/07 13:17:34;;;;;;;;;;;21.30;95.10;;;;;;5138406;27;20013;-71
2022/08/07 13:20:06;;;;;;;;;;;21.30;90.00;;;;;;5138871;27;19923;-70
2022/08/07 13:22:44;;;;;;;;;;;21.30;84.90;;;;;;5158025;27;20003;-69
2022/08/07 13:25:16;;;;;;;;;;;21.40;85.80;;;;;;5122041;27;19963;-70
2022/08/07 13:27:47;;;;;;;;;;;21.80;85.70;;;;;;5157229;27;19983;-71
2022/08/07 13:30:14;;;;;;;;;;;21.30;85.70;;;;;;5156226;27;20350;-69
2022/08/07 13:32:49;;;;;;;;;;;21.30;84.20;;;;;;5141816;27;19971;-71
2022/08/07 13:35:30;;;;;;;;;;;21.20;84.00;;;;;;5142430;27;19994;-70
2022/08/07 13:38:05;;;;;;;;;;;21.20;85.10;;;;;;5147178;27;19930;-70
2022/08/07 13:40:34;;;;;;;;;;;21.20;75.20;;;;;;5124691;27;19971;-70
2022/08/07 13:43:09;;;;;;;;;;;21.20;77.90;;;;;;5177899;27;20369;-70
2022/08/07 13:45:39;;;;;;;;;;;21.20;76.90;;;;;;5155601;27;20442;-70
2022/08/07 13:48:07;;;;;;;;;;;21.10;78.30;;;;;;5178102;27;19922;-71
2022/08/07 13:50:34;;;;;;;;;;;21.20;88.20;;;;;;5161154;27;20006;-71
2022/08/07 13:53:01;;;;;;;;;;;21.30;86.80;;;;;;5159549;27;19923;-69
2022/08/07 13:55:27;;;;;;;;;;;21.30;78.80;;;;;;5178015;27;20278;-70
2022/08/07 13:58:59;;;;;;;;;;;21.50;91.30;;;;;;5177797;27;19923;-70
2022/08/07 14:00:51;;;;;;;;;;;21.50;92.80;;;;;;5177929;27;20381;-69
2022/08/07 14:03:18;;;;;;;;;;;21.60;78.00;;;;;;5177805;27;19923;-70
2022/08/07 14:05:45;;;;;;;;;;;21.70;83.90;;;;;;5176474;27;19944;-70
2022/08/07 14:08:11;;;;;;;;;;;21.70;77.60;;;;;;5158964;27;20346;-71
2022/08/07 14:10:39;;;;;;;;;;;21.80;76.30;;;;;;5177735;27;20005;-69
2022/08/07 14:13:06;;;;;;;;;;;21.80;79.30;;;;;;5177529;27;19923;-70
2022/08/07 14:15:43;;;;;;;;;;;21.80;73.50;;;;;;5177691;27;20351;-70
2022/08/07 14:18:21;;;;;;;;;;;21.80;75.10;;;;;;5177317;27;20381;-70
2022/08/07 14:20:49;;;;;;;;;;;21.70;73.20;;;;;;5158817;27;20009;-70
2022/08/07 14:23:19;;;;;;;;;;;21.70;81.30;;;;;;5177760;27;20083;-70
2022/08/07 14:25:53;;;;;;;;;;;21.70;81.60;;;;;;5177267;27;20388;-71
2022/08/07 14:28:21;;;;;;;;;;;21.80;79.90;;;;;;5158447;27;19923;-70
2022/08/07 14:30:47;;;;;;;;;;;21.70;80.20;;;;;;5177269;27;19975;-70
2022/08/07 14:33:14;;;;;;;;;;;21.80;77.80;;;;;;5158821;27;19923;-71
2022/08/07 14:35:40;;;;;;;;;;;21.80;83.80;;;;;;5158626;27;19930;-71